createdAt,value
2023-11-12T00:01:36.785Z,4.49
2023-11-12T00:16:36.219Z,4.51
2023-11-12T00:31:35.424Z,4.51
2023-11-12T00:46:34.764Z,4.51
2023-11-12T01:01:34.061Z,4.52
2023-11-12T01:16:33.402Z,4.53
2023-11-12T01:31:32.850Z,4.56
2023-11-12T01:46:32.025Z,4.59
2023-11-12T02:01:31.290Z,4.59
2023-11-12T02:16:30.683Z,4.60
2023-11-12T02:31:29.984Z,4.63
2023-11-12T02:46:29.287Z,4.62
2023-11-12T03:01:28.640Z,4.62
2023-11-12T03:16:27.943Z,4.63
2023-11-12T03:31:27.180Z,4.62
2023-11-12T03:46:26.464Z,4.56
2023-11-12T04:01:25.930Z,4.52
2023-11-12T04:16:25.086Z,4.49
2023-11-12T04:31:24.401Z,4.49
2023-11-12T04:46:23.810Z,4.48
2023-11-12T05:01:22.985Z,4.40
2023-11-12T05:16:22.341Z,4.37
2023-11-12T05:31:21.807Z,4.35
2023-11-12T05:46:21.047Z,4.35
2023-11-12T06:01:20.254Z,4.34
2023-11-12T06:16:19.549Z,4.38
2023-11-12T06:31:18.991Z,4.37
2023-11-12T06:46:18.280Z,4.35
2023-11-12T07:01:17.596Z,4.40
2023-11-12T07:16:16.853Z,4.49
2023-11-12T07:31:16.277Z,4.64
2023-11-12T07:46:15.473Z,4.79
2023-11-12T08:01:14.750Z,4.94
2023-11-12T08:16:14.037Z,5.39
2023-11-12T08:31:13.415Z,5.60
2023-11-12T08:46:12.609Z,5.82
2023-11-12T09:01:11.949Z,5.90
2023-11-12T09:16:11.271Z,6.34
2023-11-12T09:31:10.605Z,6.81
2023-11-12T09:46:10.048Z,7.07
2023-11-12T10:01:09.692Z,7.52
2023-11-12T10:16:08.755Z,7.85
2023-11-12T10:31:07.935Z,8.63
2023-11-12T10:46:07.225Z,8.89
2023-11-12T11:01:06.625Z,8.89
2023-11-12T11:16:05.890Z,7.78
2023-11-12T11:31:05.149Z,7.21
2023-11-12T11:46:04.520Z,7.08
2023-11-12T12:01:03.829Z,6.88
2023-11-12T12:16:03.126Z,6.91
2023-11-12T12:31:02.490Z,7.02
2023-11-12T12:46:01.746Z,7.08
2023-11-12T13:01:01.107Z,7.03
2023-11-12T13:16:00.553Z,7.00
2023-11-12T13:30:59.815Z,7.14
2023-11-12T13:45:59.133Z,7.10
2023-11-12T14:00:58.361Z,6.99
2023-11-12T14:15:57.746Z,6.81
2023-11-12T14:30:56.964Z,6.67
2023-11-12T14:45:56.305Z,6.51
2023-11-12T15:00:55.695Z,6.37
2023-11-12T15:15:54.842Z,6.25
2023-11-12T15:30:54.219Z,6.09
2023-11-12T15:45:53.500Z,5.94
2023-11-12T16:00:53.090Z,5.83
2023-11-12T16:15:52.347Z,5.76
2023-11-12T16:30:51.694Z,5.75
2023-11-12T16:45:50.914Z,5.64
2023-11-12T17:00:50.232Z,5.50
2023-11-12T17:15:49.558Z,5.40
2023-11-12T17:30:48.834Z,5.43
2023-11-12T17:45:48.272Z,5.46
2023-11-12T18:00:47.443Z,5.50
2023-11-12T18:15:46.855Z,5.46
2023-11-12T18:30:48.294Z,5.37
2023-11-12T18:45:45.370Z,5.34
2023-11-12T19:00:44.870Z,5.32
2023-11-12T19:15:43.991Z,5.30
2023-11-12T19:30:43.284Z,5.25
2023-11-12T19:45:42.595Z,5.19
2023-11-12T20:00:41.846Z,5.10
2023-11-12T20:15:41.143Z,5.05
2023-11-12T20:30:40.430Z,5.02
2023-11-12T20:45:39.784Z,4.94
2023-11-12T21:00:39.113Z,4.99
2023-11-12T21:15:38.400Z,5.01
2023-11-12T21:30:37.603Z,5.01
2023-11-12T21:45:36.936Z,5.05
2023-11-12T22:00:36.214Z,5.02
2023-11-12T22:15:35.483Z,5.01
2023-11-12T22:30:34.926Z,4.97
2023-11-12T22:45:34.187Z,4.92
2023-11-12T23:00:37.022Z,4.87
2023-11-12T23:15:32.822Z,4.80
2023-11-12T23:30:32.049Z,4.67
2023-11-12T23:45:31.402Z,4.62
